Portada
METAR-TAF:

METAR-TAF

Aeroports :

Wallis, França

latitud: 13-14S, longitud: 176-10W, altitud: 23 m

Observació

L'informe es va fer fa 34 minuts, a les 17:00 UTC
Vent calma
Temperatura 22°C
Humitat 94%
Pressió 1008 hPa
Visibilitat 10 km o més

METAR: NLWW 131700Z AUTO 00000KT 9999 NCD 22/21 Q1008 NOSIG

Hora: 05:34 (17:34 UTC)

Pronòstic

L'informe es va fer fa 6 hores i 34 minuts, a les 11:00 UTC
Pronòstic vàlid del 13 a les 12 UTC al 14 a les 12 UTC
Vent 2 kt amb direcció variable
Visibilitat 10 km o més
Escasses núvols a una alçada de 2500 ft

TAF: NLWW 131100Z 1312/1412 VRB02KT 9999 FEW025

Observacions i pronòstics meteorològics de més de 4000 aeroports (METAR i TAF).

Les estacions disponibles són els punts grocs i vermells al mapa.

Posi el ratolí al punt desitjat per veure el nom de l'estació.

Feu clic per veure les observacions i els pronòstics meteorològics.

Per canviar el mapa: feu clic els botons verds amb una creu de color negre per apropar; al botó verd amb un guió per allunyar la imatge; o en les fletxes verdes per a mapes adjacents.


METAR-TAF: